createdAt,value
2022-12-01T00:00:07.474Z,20.18
2022-12-01T00:02:09.296Z,19.94
2022-12-01T00:04:11.098Z,19.85
2022-12-01T00:06:17.323Z,19.70
2022-12-01T00:08:19.280Z,19.83
2022-12-01T00:10:21.184Z,19.67
2022-12-01T00:12:23.037Z,19.83
2022-12-01T00:14:25.098Z,19.64
2022-12-01T00:16:26.920Z,19.67
2022-12-01T00:18:28.915Z,19.84
2022-12-01T00:20:30.708Z,19.88
2022-12-01T00:22:32.393Z,19.64
2022-12-01T00:24:34.047Z,19.71
2022-12-01T00:26:36.889Z,19.40
2022-12-01T00:28:38.845Z,19.45
2022-12-01T00:30:40.651Z,19.74
2022-12-01T00:32:42.367Z,19.49
2022-12-01T00:34:44.304Z,19.69
2022-12-01T00:36:46.007Z,19.79
2022-12-01T00:38:47.805Z,19.64
2022-12-01T00:40:49.593Z,20.12
2022-12-01T00:42:51.427Z,19.70
2022-12-01T00:44:53.392Z,19.83
2022-12-01T00:46:55.076Z,19.79
2022-12-01T00:48:56.931Z,19.95
2022-12-01T00:50:58.705Z,19.89
2022-12-01T00:53:00.513Z,19.57
2022-12-01T00:55:02.303Z,19.49
2022-12-01T00:57:04.633Z,19.86
2022-12-01T00:59:06.441Z,19.69
2022-12-01T01:01:08.229Z,19.23
2022-12-01T01:03:10.676Z,19.80
2022-12-01T01:05:12.448Z,19.28
2022-12-01T01:07:14.216Z,19.72
2022-12-01T01:09:16.248Z,19.55
2022-12-01T01:11:18.036Z,19.66
2022-12-01T01:13:19.717Z,19.74
2022-12-01T01:15:21.599Z,19.41
2022-12-01T01:17:23.325Z,19.49
2022-12-01T01:19:25.147Z,19.35
2022-12-01T01:21:27.051Z,19.50
2022-12-01T01:23:28.855Z,19.56
2022-12-01T01:25:32.162Z,18.92
2022-12-01T01:27:34.822Z,19.09
2022-12-01T01:29:37.088Z,19.37
2022-12-01T01:31:38.995Z,19.35
2022-12-01T01:33:40.692Z,19.20
2022-12-01T01:35:42.425Z,19.05
2022-12-01T01:37:44.186Z,18.88
2022-12-01T01:39:46.191Z,19.54
2022-12-01T01:41:48.089Z,19.23
2022-12-01T01:43:50.606Z,19.23
2022-12-01T01:45:52.337Z,19.16
2022-12-01T01:47:54.278Z,19.10
2022-12-01T01:49:56.778Z,19.03
2022-12-01T01:51:58.587Z,18.87
2022-12-01T01:54:04.280Z,18.92
2022-12-01T01:56:06.235Z,18.67
2022-12-01T01:58:09.022Z,18.87
2022-12-01T02:00:13.300Z,18.88
2022-12-01T02:02:15.181Z,19.23
2022-12-01T02:04:16.884Z,18.80
2022-12-01T02:06:18.621Z,18.69
2022-12-01T02:08:20.463Z,18.84
2022-12-01T02:10:22.674Z,18.94
2022-12-01T02:12:47.154Z,18.67
2022-12-01T02:14:57.477Z,18.94
2022-12-01T02:17:04.596Z,18.84
2022-12-01T02:19:29.372Z,18.78
2022-12-01T02:22:21.674Z,18.64
2022-12-01T02:24:26.173Z,18.72
2022-12-01T02:26:52.110Z,18.80
2022-12-01T02:29:19.910Z,18.65
2022-12-01T02:31:47.656Z,18.64
2022-12-01T02:33:57.891Z,18.05
2022-12-01T02:36:33.445Z,18.32
2022-12-01T02:38:38.968Z,18.31
2022-12-01T02:41:05.085Z,18.62
2022-12-01T02:43:44.290Z,19.30
2022-12-01T02:46:15.346Z,19.08
2022-12-01T02:48:34.064Z,18.73
2022-12-01T02:50:35.869Z,18.40
2022-12-01T02:52:38.689Z,18.49
2022-12-01T02:54:40.421Z,18.56
2022-12-01T02:56:44.382Z,18.47
2022-12-01T02:58:46.151Z,18.66
2022-12-01T03:01:08.003Z,19.06
2022-12-01T03:03:21.459Z,18.54
2022-12-01T03:06:17.045Z,19.22
2022-12-01T03:08:52.771Z,18.64
2022-12-01T03:10:55.533Z,18.68
2022-12-01T03:13:23.385Z,18.17
2022-12-01T03:15:34.040Z,18.66
2022-12-01T03:17:41.464Z,18.19
2022-12-01T03:19:53.911Z,18.74
2022-12-01T03:22:01.985Z,18.72
2022-12-01T03:24:22.709Z,18.51
2022-12-01T03:26:24.757Z,18.57
2022-12-01T03:28:30.718Z,18.23
2022-12-01T03:30:33.878Z,18.47
2022-12-01T03:32:39.035Z,18.71
2022-12-01T03:35:02.068Z,18.69
2022-12-01T03:37:16.560Z,18.62
2022-12-01T03:39:25.869Z,18.74
2022-12-01T03:41:30.253Z,18.42
2022-12-01T03:43:32.657Z,18.06
2022-12-01T03:45:35.513Z,18.62
2022-12-01T03:47:37.278Z,18.82
2022-12-01T03:49:39.253Z,18.54
2022-12-01T03:51:46.074Z,18.28
2022-12-01T03:53:55.725Z,18.60
2022-12-01T03:56:00.994Z,17.79
2022-12-01T03:58:13.811Z,17.37
2022-12-01T04:00:15.774Z,17.34
2022-12-01T04:02:17.725Z,18.02
2022-12-01T04:04:19.661Z,17.82
2022-12-01T04:06:21.362Z,17.71
2022-12-01T04:08:23.131Z,18.11
2022-12-01T04:10:24.844Z,17.93
2022-12-01T04:12:26.626Z,17.80
2022-12-01T04:14:28.798Z,17.66
2022-12-01T04:16:30.766Z,18.02
2022-12-01T04:18:33.548Z,17.84
2022-12-01T04:20:35.318Z,18.15
2022-12-01T04:22:38.080Z,17.94
2022-12-01T04:24:39.885Z,18.06
2022-12-01T04:26:42.672Z,18.03
2022-12-01T04:28:44.618Z,18.07
2022-12-01T04:30:46.343Z,18.28
2022-12-01T04:32:48.144Z,18.16
2022-12-01T04:34:49.935Z,17.80
2022-12-01T04:36:51.895Z,17.87
2022-12-01T04:38:53.805Z,17.70
2022-12-01T04:40:55.642Z,17.47
2022-12-01T04:42:57.509Z,17.48
2022-12-01T04:44:59.241Z,17.57
2022-12-01T04:47:01.226Z,17.48
2022-12-01T04:49:03.445Z,17.55
2022-12-01T04:51:06.023Z,17.05
2022-12-01T04:53:07.675Z,17.15
2022-12-01T04:55:09.861Z,17.23
2022-12-01T04:57:11.494Z,17.18
2022-12-01T04:59:13.148Z,16.92
2022-12-01T05:01:15.775Z,17.08
2022-12-01T05:03:17.513Z,17.24
2022-12-01T05:05:19.139Z,17.18
2022-12-01T05:07:20.806Z,17.08
2022-12-01T05:09:22.487Z,16.69
2022-12-01T05:11:26.418Z,16.98
2022-12-01T05:13:28.059Z,17.00
2022-12-01T05:15:29.675Z,16.56
2022-12-01T05:17:36.811Z,16.76
2022-12-01T05:19:38.790Z,16.36
2022-12-01T05:21:40.962Z,16.47
2022-12-01T05:23:42.592Z,16.48
2022-12-01T05:25:44.224Z,16.58
2022-12-01T05:27:45.853Z,16.16
2022-12-01T05:29:47.884Z,16.19
2022-12-01T05:31:49.813Z,16.13
2022-12-01T05:33:51.459Z,15.94
2022-12-01T05:35:53.161Z,16.15
2022-12-01T05:37:54.800Z,16.11
2022-12-01T05:39:56.439Z,16.28
2022-12-01T05:41:58.071Z,16.09
2022-12-01T05:43:59.704Z,15.91
2022-12-01T05:46:01.425Z,15.88
2022-12-01T05:48:03.187Z,15.93
2022-12-01T05:50:06.117Z,15.71
2022-12-01T05:52:08.136Z,15.66
2022-12-01T05:54:09.857Z,15.62
2022-12-01T05:56:11.477Z,15.85
2022-12-01T05:58:13.141Z,15.77
2022-12-01T06:00:15.180Z,15.49
2022-12-01T06:02:16.834Z,15.49
2022-12-01T06:04:18.555Z,15.42
2022-12-01T06:06:20.405Z,15.56
2022-12-01T06:08:22.036Z,15.63
2022-12-01T06:10:23.683Z,15.32
2022-12-01T06:12:25.301Z,15.20
2022-12-01T06:14:26.930Z,15.25
2022-12-01T06:16:28.653Z,15.50
2022-12-01T06:18:31.890Z,15.06
2022-12-01T06:20:33.538Z,15.60
2022-12-01T06:22:35.164Z,15.16
2022-12-01T06:24:36.899Z,15.10
2022-12-01T06:26:38.538Z,15.42
2022-12-01T06:28:40.182Z,15.38
2022-12-01T06:30:41.856Z,15.12
2022-12-01T06:32:43.482Z,15.26
2022-12-01T06:34:45.117Z,14.80
2022-12-01T06:36:46.745Z,14.86
2022-12-01T06:38:48.365Z,14.82
2022-12-01T06:40:49.976Z,15.34
2022-12-01T06:42:51.614Z,14.78
2022-12-01T06:44:53.259Z,14.97
2022-12-01T06:46:54.929Z,15.29
2022-12-01T06:48:56.678Z,15.18
2022-12-01T06:50:59.087Z,15.08
2022-12-01T06:53:00.764Z,15.17
2022-12-01T06:55:02.893Z,14.98
2022-12-01T06:57:04.833Z,14.90
2022-12-01T06:59:06.788Z,14.92
2022-12-01T07:01:10.105Z,14.90
2022-12-01T07:03:11.785Z,14.79
2022-12-01T07:05:13.420Z,14.80
2022-12-01T07:07:15.061Z,14.88
2022-12-01T07:09:16.686Z,14.84
2022-12-01T07:11:18.457Z,14.75
2022-12-01T07:13:20.088Z,15.07
2022-12-01T07:15:21.715Z,14.72
2022-12-01T07:17:23.502Z,15.13
2022-12-01T07:19:25.141Z,14.59
2022-12-01T07:21:26.778Z,14.40
2022-12-01T07:23:28.593Z,14.82
2022-12-01T07:25:30.230Z,14.73
2022-12-01T07:27:31.977Z,14.68
2022-12-01T07:29:33.687Z,14.40
2022-12-01T07:31:35.434Z,14.43
2022-12-01T07:33:37.107Z,14.52
2022-12-01T07:35:38.763Z,14.43
2022-12-01T07:37:40.409Z,14.64
2022-12-01T07:39:42.086Z,14.67
2022-12-01T07:41:43.726Z,14.74
2022-12-01T07:43:45.385Z,14.87
2022-12-01T07:45:47.075Z,14.61
2022-12-01T07:47:52.195Z,14.51
2022-12-01T07:49:53.818Z,15.05
2022-12-01T07:51:55.458Z,14.92
2022-12-01T07:54:01.164Z,15.16
2022-12-01T07:56:07.015Z,14.90
2022-12-01T07:58:09.940Z,14.97
2022-12-01T08:00:12.272Z,15.33
2022-12-01T08:02:14.029Z,14.96
2022-12-01T08:04:15.763Z,14.82
2022-12-01T08:06:17.760Z,14.66
2022-12-01T08:08:19.463Z,14.74
2022-12-01T08:10:21.203Z,14.76
2022-12-01T08:12:22.886Z,14.45
2022-12-01T08:14:24.655Z,14.39
2022-12-01T08:16:26.371Z,14.34
2022-12-01T08:18:28.132Z,14.74
2022-12-01T08:20:29.821Z,14.23
2022-12-01T08:22:31.537Z,14.32
2022-12-01T08:24:33.231Z,14.69
2022-12-01T08:26:34.848Z,14.67
2022-12-01T08:28:36.495Z,14.71
2022-12-01T08:30:38.134Z,14.44
2022-12-01T08:32:39.769Z,14.69
2022-12-01T08:34:41.849Z,14.32
2022-12-01T08:36:43.901Z,14.48
2022-12-01T08:38:46.122Z,14.25
2022-12-01T08:42:49.179Z,14.32
2022-12-01T08:44:50.854Z,14.18
2022-12-01T08:46:52.568Z,14.46
2022-12-01T08:48:54.765Z,14.46
2022-12-01T08:51:09.401Z,14.57
2022-12-01T08:53:11.025Z,14.08
2022-12-01T08:55:12.661Z,14.47
2022-12-01T08:57:14.288Z,14.38
2022-12-01T08:59:16.015Z,14.51
2022-12-01T09:01:18.208Z,14.71
2022-12-01T09:03:19.923Z,15.38
2022-12-01T09:05:21.581Z,15.00
2022-12-01T09:07:26.540Z,14.92
2022-12-01T09:09:28.857Z,15.11
2022-12-01T09:11:30.491Z,14.71
2022-12-01T09:13:33.224Z,14.62
2022-12-01T09:15:34.872Z,14.72
2022-12-01T09:17:36.510Z,14.65
2022-12-01T09:19:38.127Z,14.85
2022-12-01T09:21:39.855Z,14.58
2022-12-01T09:23:41.476Z,14.84
2022-12-01T09:25:43.232Z,14.78
2022-12-01T09:27:45.031Z,14.44
2022-12-01T09:29:47.063Z,14.33
2022-12-01T09:31:48.917Z,14.46
2022-12-01T09:33:57.797Z,14.68
2022-12-01T09:36:00.303Z,14.56
2022-12-01T09:38:01.996Z,14.44
2022-12-01T09:40:03.950Z,14.24
2022-12-01T09:42:13.836Z,14.57
2022-12-01T09:44:27.549Z,14.34
2022-12-01T09:46:32.885Z,14.26
2022-12-01T09:48:43.673Z,14.69
2022-12-01T09:50:45.350Z,14.50
2022-12-01T09:52:48.190Z,14.40
2022-12-01T09:54:49.936Z,14.57
2022-12-01T09:56:52.644Z,14.41
2022-12-01T09:58:59.470Z,14.73
2022-12-01T10:01:01.276Z,14.92
2022-12-01T10:03:08.915Z,14.79
2022-12-01T10:05:22.481Z,14.55
2022-12-01T10:07:24.844Z,14.90
2022-12-01T10:09:41.499Z,15.00
2022-12-01T10:11:43.953Z,14.91
2022-12-01T10:13:45.654Z,14.63
2022-12-01T10:15:59.428Z,15.06
2022-12-01T10:18:24.308Z,15.01
2022-12-01T10:20:30.895Z,14.84
2022-12-01T10:22:55.804Z,15.00
2022-12-01T10:25:10.683Z,16.07
2022-12-01T10:27:25.750Z,17.28
2022-12-01T10:29:47.791Z,17.45
2022-12-01T10:31:53.875Z,18.88
2022-12-01T10:34:08.195Z,19.22
2022-12-01T10:36:10.192Z,19.96
2022-12-01T10:38:15.296Z,20.66
2022-12-01T10:40:17.444Z,21.01
2022-12-01T10:42:41.290Z,21.63
2022-12-01T10:44:43.021Z,21.98
2022-12-01T10:46:50.596Z,22.57
2022-12-01T10:49:08.190Z,22.76
2022-12-01T10:51:28.831Z,22.94
2022-12-01T10:53:49.080Z,23.35
2022-12-01T10:55:52.064Z,24.03
2022-12-01T10:58:06.145Z,24.37
2022-12-01T11:00:57.543Z,24.46
2022-12-01T11:22:31.315Z,31.60
2022-12-01T11:24:42.384Z,32.91
2022-12-01T11:26:44.175Z,34.54
2022-12-01T11:29:02.880Z,36.44
2022-12-01T11:31:13.653Z,37.73
2022-12-01T11:33:15.391Z,39.83
2022-12-01T11:35:19.495Z,40.23
2022-12-01T11:37:22.515Z,41.17
2022-12-01T11:39:36.501Z,42.51
2022-12-01T11:41:40.191Z,43.23
2022-12-01T11:43:46.768Z,43.46
2022-12-01T11:45:52.503Z,44.58
2022-12-01T11:48:03.377Z,44.65
2022-12-01T11:50:24.178Z,45.14
2022-12-01T11:52:36.916Z,46.17
2022-12-01T11:54:38.868Z,46.67
2022-12-01T11:56:40.705Z,46.76
2022-12-01T11:58:46.259Z,47.14
2022-12-01T12:00:52.091Z,47.74
2022-12-01T12:02:56.767Z,47.78
2022-12-01T12:05:30.959Z,49.68
2022-12-01T12:08:04.383Z,49.13
2022-12-01T12:10:43.458Z,49.96
2022-12-01T12:13:03.344Z,49.32
2022-12-01T12:15:16.863Z,50.54
2022-12-01T12:17:41.264Z,51.74
2022-12-01T12:20:16.236Z,51.79
2022-12-01T12:22:33.858Z,51.10
2022-12-01T12:25:20.474Z,52.96
2022-12-01T12:27:25.131Z,55.25
2022-12-01T12:29:51.642Z,52.46
2022-12-01T12:32:03.443Z,53.42
2022-12-01T12:34:13.991Z,53.22
2022-12-01T12:36:27.687Z,53.19
2022-12-01T12:39:01.690Z,54.75
2022-12-01T12:41:25.106Z,54.82
2022-12-01T12:43:51.586Z,54.39
2022-12-01T12:45:56.306Z,54.54
2022-12-01T12:48:07.450Z,54.31
2022-12-01T12:50:15.268Z,54.07
2022-12-01T12:52:26.690Z,55.15
2022-12-01T12:54:41.891Z,55.95
2022-12-01T12:56:46.738Z,57.88
2022-12-01T12:58:58.508Z,57.21
2022-12-01T13:05:09.389Z,56.87
2022-12-01T13:10:48.895Z,58.25
2022-12-01T13:15:51.517Z,57.92
2022-12-01T13:20:54.454Z,58.50
2022-12-01T13:25:57.559Z,59.48
2022-12-01T13:31:15.400Z,58.77
2022-12-01T13:36:46.780Z,59.63
2022-12-01T13:41:39.099Z,61.32
2022-12-01T13:46:44.107Z,60.55
2022-12-01T13:52:22.860Z,61.40
2022-12-01T13:57:26.957Z,61.82
2022-12-01T14:02:30.559Z,61.52
2022-12-01T14:07:34.911Z,62.38
2022-12-01T14:12:36.828Z,62.01
2022-12-01T14:17:38.700Z,63.23
2022-12-01T14:22:42.395Z,63.02
2022-12-01T14:27:44.439Z,63.57
2022-12-01T14:32:46.325Z,64.64
2022-12-01T14:37:48.838Z,64.97
2022-12-01T14:42:51.295Z,64.81
2022-12-01T14:47:57.802Z,64.76
2022-12-01T14:53:07.294Z,67.23
2022-12-01T14:58:15.354Z,67.02
2022-12-01T15:03:19.664Z,67.00
2022-12-01T15:08:42.020Z,68.23
2022-12-01T15:13:48.777Z,67.88
2022-12-01T15:18:50.580Z,68.49
2022-12-01T15:24:03.394Z,68.58
2022-12-01T15:29:18.414Z,68.52
2022-12-01T15:34:27.139Z,67.77
2022-12-01T15:39:39.516Z,68.73
2022-12-01T15:44:41.385Z,68.90
2022-12-01T15:49:48.719Z,69.35
2022-12-01T15:54:50.841Z,69.14
2022-12-01T15:59:54.258Z,68.09
2022-12-01T16:05:10.085Z,68.35
2022-12-01T16:10:41.181Z,69.59
2022-12-01T16:15:43.537Z,69.33
2022-12-01T16:20:45.536Z,68.55
2022-12-01T16:25:47.479Z,69.37
2022-12-01T16:30:49.593Z,68.34
2022-12-01T16:35:51.638Z,68.95
2022-12-01T16:40:55.353Z,68.82
2022-12-01T16:46:02.058Z,68.89
2022-12-01T16:51:05.272Z,68.43
2022-12-01T16:56:09.419Z,68.71
2022-12-01T17:01:12.646Z,68.61
2022-12-01T17:06:17.048Z,70.15
2022-12-01T17:11:18.968Z,70.27
2022-12-01T17:16:20.987Z,71.11
2022-12-01T17:21:22.907Z,70.81
2022-12-01T17:26:24.841Z,69.79
2022-12-01T17:31:26.763Z,69.95
2022-12-01T17:36:28.751Z,68.94
2022-12-01T17:41:30.629Z,69.84
2022-12-01T17:46:32.444Z,70.25
2022-12-01T17:51:34.488Z,70.63
2022-12-01T17:56:36.597Z,71.17
2022-12-01T18:01:38.868Z,70.46
2022-12-01T18:06:42.067Z,70.47
2022-12-01T18:11:44.034Z,70.47
2022-12-01T18:16:46.038Z,69.67
2022-12-01T18:21:49.062Z,71.01
2022-12-01T18:26:50.955Z,70.18
2022-12-01T18:31:56.535Z,71.53
2022-12-01T18:36:58.661Z,71.92
2022-12-01T18:42:00.841Z,71.46
2022-12-01T18:47:02.975Z,70.76
2022-12-01T18:52:05.098Z,71.08
2022-12-01T18:57:07.216Z,70.94
2022-12-01T19:02:09.899Z,70.91
2022-12-01T19:07:12.072Z,70.42
2022-12-01T19:12:14.395Z,70.17
2022-12-01T19:17:16.104Z,71.27
2022-12-01T19:22:18.141Z,70.68
2022-12-01T19:27:20.012Z,70.55
2022-12-01T19:32:21.982Z,70.78
2022-12-01T19:37:23.898Z,71.82
2022-12-01T19:42:25.794Z,71.81
2022-12-01T19:47:33.713Z,71.46
2022-12-01T19:52:36.396Z,71.85
2022-12-01T19:57:38.304Z,71.20
2022-12-01T20:02:40.342Z,70.17
2022-12-01T20:07:44.733Z,71.92
2022-12-01T20:12:50.358Z,70.85
2022-12-01T20:17:52.415Z,70.70
2022-12-01T20:22:54.317Z,71.67
2022-12-01T20:27:56.432Z,71.01
2022-12-01T20:32:58.287Z,71.65
2022-12-01T20:38:00.258Z,71.33
2022-12-01T20:43:02.175Z,72.52
2022-12-01T20:48:04.299Z,72.90
2022-12-01T20:53:06.246Z,72.91
2022-12-01T20:58:08.101Z,72.43
2022-12-01T21:03:10.480Z,72.43
2022-12-01T21:08:12.566Z,73.81
2022-12-01T21:13:22.871Z,73.66
2022-12-01T21:18:25.966Z,73.21
2022-12-01T21:23:27.997Z,74.25
2022-12-01T21:28:30.367Z,74.04
2022-12-01T21:33:33.836Z,72.88
2022-12-01T21:38:35.721Z,74.53
2022-12-01T21:43:38.629Z,74.13
2022-12-01T21:48:40.675Z,74.81
2022-12-01T21:53:42.570Z,74.42
2022-12-01T21:58:44.637Z,75.22
2022-12-01T22:03:46.796Z,74.52
2022-12-01T22:08:53.997Z,74.23
2022-12-01T22:14:09.754Z,74.01
2022-12-01T22:19:32.629Z,75.48
2022-12-01T22:24:39.898Z,75.51
2022-12-01T22:29:46.091Z,75.91
2022-12-01T22:34:56.505Z,76.38
2022-12-01T22:39:58.466Z,76.25
2022-12-01T22:45:24.429Z,75.20
2022-12-01T22:50:32.827Z,75.66
2022-12-01T22:55:34.787Z,76.01
2022-12-01T23:00:36.873Z,75.09
2022-12-01T23:05:38.822Z,74.99
2022-12-01T23:10:40.642Z,75.80
2022-12-01T23:15:46.417Z,76.50
2022-12-01T23:20:50.620Z,76.58
2022-12-01T23:25:52.510Z,76.60
2022-12-01T23:30:55.804Z,77.33
2022-12-01T23:36:28.121Z,77.22
2022-12-01T23:41:40.307Z,76.54
2022-12-01T23:46:42.644Z,76.77
2022-12-01T23:51:45.681Z,76.85
2022-12-01T23:56:52.425Z,77.24
